Time;durP1;ratioP1;P1;durP2;ratioP2;P2;SDS_P1;SDS_P2;PMS_P1;PMS_P2;Temp;Humidity;BMP_temperature;BMP_pressure;BME280_temperature;BME280_humidity;BME280_pressure;Samples;Min_cycle;Max_cycle;Signal;HPM_P1;HPM_P2
2022/03/19 00:18:38;;;;;;;8.50;7.13;;;;;;;2.08;40.74;101592.19;6360418;22;20033;-85
2022/03/19 00:41:44;;;;;;;12.50;8.17;;;;;;;1.84;40.78;101544.72;6334870;22;20031;-84
2022/03/19 00:44:10;;;;;;;8.57;7.63;;;;;;;2.25;40.87;101633.13;6330509;22;19995;-82
2022/03/19 00:46:36;;;;;;;9.87;6.93;;;;;;;3.70;40.74;101797.19;6309429;22;19988;-85
2022/03/19 00:49:01;;;;;;;8.67;6.57;;;;;;;1.22;40.58;101479.06;6335811;22;19995;-86
2022/03/19 00:51:27;;;;;;;10.10;7.50;;;;;;;1.78;40.45;101500.75;6309674;22;19999;-84
2022/03/19 00:53:52;;;;;;;11.33;7.83;;;;;;;1.75;40.71;101534.75;6335712;22;20015;-84
2022/03/19 01:04:04;;;;;;;11.10;7.33;;;;;;;2.13;41.20;101561.56;6322616;22;20004;-81
2022/03/19 01:06:29;;;;;;;11.73;7.67;;;;;;;2.08;41.04;101605.22;6339623;22;20017;-82
2022/03/19 01:16:40;;;;;;;10.37;8.13;;;;;;;3.99;41.45;101854.97;6335489;22;20010;-83
2022/03/19 01:19:06;;;;;;;12.67;9.47;;;;;;;0.99;41.31;101408.22;6338212;22;19995;-85
2022/03/19 01:21:31;;;;;;;15.80;10.57;;;;;;;1.23;41.16;101436.50;6338301;22;20010;-85
2022/03/19 01:34:17;;;;;;;10.47;7.97;;;;;;;1.10;40.54;101353.91;6341263;22;20007;-83
2022/03/19 01:41:54;;;;;;;11.87;8.87;;;;;;;1.35;40.85;101396.06;6283952;22;20058;-85
2022/03/19 01:44:21;;;;;;;10.27;7.87;;;;;;;4.12;40.88;101921.38;6306253;22;19992;-86
2022/03/19 01:54:46;;;;;;;13.00;7.93;;;;;;;1.26;40.89;101396.50;6305677;22;20219;-83
2022/03/19 01:59:47;;;;;;;12.23;8.57;;;;;;;0.87;41.01;101381.00;6284153;22;20032;-85
2022/03/19 02:10:05;;;;;;;10.47;7.77;;;;;;;1.51;40.50;101495.94;6272074;22;20018;-82
2022/03/19 02:12:31;;;;;;;9.70;6.87;;;;;;;1.07;40.45;101461.56;6276491;22;19995;-83
2022/03/19 02:41:08;;;;;;;13.02;9.13;;;;;;;1.48;41.53;101482.19;6333601;22;20059;-85
2022/03/19 02:51:20;;;;;;;18.23;13.13;;;;;;;1.31;42.03;101492.56;6328682;22;19996;-82
2022/03/19 03:09:22;;;;;;;18.00;12.83;;;;;;;0.92;42.47;101454.47;6328510;22;20023;-85
2022/03/19 03:34:23;;;;;;;19.53;13.33;;;;;;;1.51;43.28;101526.34;6316663;22;20062;-86
2022/03/19 03:47:09;;;;;;;22.03;15.87;;;;;;;1.61;44.05;101548.41;6312794;22;19999;-83
2022/03/19 03:49:35;;;;;;;28.30;19.07;;;;;;;1.45;44.23;101589.06;6313435;22;20029;-81
2022/03/19 03:52:00;;;;;;;25.90;17.37;;;;;;;0.32;44.00;101422.47;6331167;22;20014;-83
2022/03/19 04:09:57;;;;;;;18.37;14.47;;;;;;;1.08;44.50;101551.69;6314311;22;19995;-84
2022/03/19 04:22:45;;;;;;;29.60;20.70;;;;;;;1.72;44.84;101665.94;6315805;22;20012;-84
2022/03/19 04:46:05;;;;;;;27.60;19.33;;;;;;;1.13;45.84;101580.09;6316156;22;20228;-84
2022/03/19 04:48:31;;;;;;;25.77;18.23;;;;;;;1.04;45.65;101614.31;6334220;22;20348;-84
2022/03/19 04:50:57;;;;;;;26.00;18.27;;;;;;;0.97;45.80;101605.09;6315021;22;19995;-81
2022/03/19 04:53:24;;;;;;;28.50;21.03;;;;;;;1.06;45.66;101574.31;6312195;22;20014;-81
2022/03/19 04:55:49;;;;;;;26.40;20.20;;;;;;;-0.05;46.01;101423.16;6325451;22;20041;-86
2022/03/19 04:58:16;;;;;;;27.40;19.53;;;;;;;-0.36;46.00;101336.19;6338720;22;19987;-84
2022/03/19 05:13:37;;;;;;;25.17;19.53;;;;;;;-0.46;46.14;101381.59;6319123;22;20228;-85
2022/03/19 05:16:03;;;;;;;25.07;18.50;;;;;;;0.86;46.38;101551.78;6340796;22;19999;-82
2022/03/19 05:18:28;;;;;;;30.20;21.90;;;;;;;1.13;46.19;101601.75;6341019;22;19991;-81
2022/03/19 05:23:30;;;;;;;31.00;20.03;;;;;;;-0.03;45.84;101421.34;6318005;22;20003;-83
2022/03/19 05:51:45;;;;;;;42.53;27.87;;;;;;;0.15;45.25;101409.34;6328251;22;20007;-81
2022/03/19 06:04:31;;;;;;;47.27;29.63;;;;;;;1.16;45.60;101512.31;6317515;22;20004;-82
2022/03/19 06:09:32;;;;;;;46.47;30.27;;;;;;;1.58;45.16;101600.63;6314712;22;20022;-83
2022/03/19 06:14:33;;;;;;;36.70;24.87;;;;;;;0.54;45.04;101453.53;6312361;22;19990;-82
2022/03/19 06:22:09;;;;;;;16.23;12.93;;;;;;;0.84;43.36;101454.81;6314700;22;20006;-83
2022/03/19 06:27:09;;;;;;;11.70;9.57;;;;;;;0.94;42.43;101491.63;6322412;22;20001;-83
2022/03/19 06:32:10;;;;;;;13.57;9.77;;;;;;;2.53;41.94;101746.44;6335273;22;20029;-84
2022/03/19 06:37:20;;;;;;;16.60;10.57;;;;;;;1.91;41.23;101593.84;6325171;22;20710;-84
2022/03/19 06:44:56;;;;;;;15.40;10.57;;;;;;;0.99;40.78;101455.88;6309636;22;19999;-83
2022/03/19 06:47:21;;;;;;;12.13;8.73;;;;;;;1.00;40.53;101431.53;6330168;22;20026;-86
2022/03/19 06:49:47;;;;;;;12.60;9.83;;;;;;;1.16;40.75;101460.28;6338415;22;19979;-82
2022/03/19 07:02:48;;;;;;;14.32;9.70;;;;;;;3.00;39.89;101706.78;6323951;22;20026;-85
2022/03/19 07:05:21;;;;;;;15.23;10.20;;;;;;;1.36;40.03;101447.19;6310698;22;19999;-83
2022/03/19 07:07:48;;;;;;;16.03;10.93;;;;;;;2.57;40.19;101650.66;6334072;22;20035;-85
2022/03/19 07:10:15;;;;;;;12.87;9.20;;;;;;;2.61;40.10;101594.81;6336794;22;20316;-84
2022/03/19 07:12:43;;;;;;;11.10;8.50;;;;;;;2.70;39.34;101641.28;6336835;22;19992;-84
2022/03/19 07:15:12;;;;;;;12.40;9.40;;;;;;;1.92;39.26;101477.47;6336945;22;19983;-82
2022/03/19 07:17:38;;;;;;;10.47;8.23;;;;;;;1.90;38.84;101417.66;6336967;22;19990;-86
2022/03/19 07:20:04;;;;;;;13.90;7.63;;;;;;;2.04;38.84;101489.06;6336622;22;19984;-86
2022/03/19 07:22:54;;;;;;;13.80;7.93;;;;;;;1.79;37.86;101383.50;6336505;22;19994;-86
2022/03/19 07:25:22;;;;;;;11.97;7.70;;;;;;;2.31;37.94;101531.16;6337252;22;19997;-90
2022/03/19 07:28:10;;;;;;;12.03;8.20;;;;;;;3.66;37.89;101727.75;6337003;22;20035;-84
2022/03/19 07:33:33;;;;;;;19.13;9.93;;;;;;;2.81;37.62;101580.75;6305835;22;20069;-85
2022/03/19 07:35:59;;;;;;;17.70;11.20;;;;;;;2.07;38.02;101415.94;6305219;22;20023;-87
2022/03/19 07:38:25;;;;;;;12.57;9.80;;;;;;;1.90;38.18;101432.44;6305724;22;19999;-85
2022/03/19 07:43:44;;;;;;;14.87;10.23;;;;;;;2.95;37.76;101573.06;6349851;22;19999;-87
2022/03/19 07:46:10;;;;;;;13.77;10.67;;;;;;;3.48;37.98;101666.88;6309838;22;20038;-86
2022/03/19 07:48:36;;;;;;;13.87;9.60;;;;;;;2.67;37.41;101453.66;6327837;22;19995;-88
2022/03/19 07:51:01;;;;;;;12.00;8.93;;;;;;;3.69;37.42;101625.69;6313027;22;20094;-89
2022/03/19 07:53:27;;;;;;;11.07;8.50;;;;;;;5.48;36.89;101911.47;6309870;22;20052;-87
2022/03/19 07:55:55;;;;;;;12.47;9.30;;;;;;;3.81;36.96;101619.84;6282137;22;20078;-89
2022/03/19 07:58:21;;;;;;;13.80;8.70;;;;;;;4.55;36.63;101746.53;6308719;22;20006;-90
2022/03/19 08:00:47;;;;;;;12.90;9.63;;;;;;;5.20;36.70;101846.66;6306979;22;20360;-89
2022/03/19 08:03:13;;;;;;;12.37;10.23;;;;;;;4.93;36.08;101807.19;6279260;22;20031;-91
2022/03/19 08:05:42;;;;;;;12.43;8.50;;;;;;;4.41;36.33;101684.50;6307419;22;20005;-88
2022/03/19 08:08:07;;;;;;;11.33;8.47;;;;;;;5.27;36.10;101859.34;6306545;22;19999;-90
2022/03/19 08:10:35;;;;;;;11.40;8.53;;;;;;;4.24;36.00;101698.50;6306079;22;20014;-90
2022/03/19 08:13:05;;;;;;;9.97;7.57;;;;;;;4.22;35.56;101621.09;6278767;22;20007;-91
2022/03/19 08:15:31;;;;;;;9.63;7.43;;;;;;;5.86;35.85;101877.78;6305519;22;20006;-90
2022/03/19 08:17:57;;;;;;;9.47;7.70;;;;;;;5.53;35.11;101834.28;6278248;22;20355;-90
2022/03/19 08:20:23;;;;;;;10.90;7.60;;;;;;;5.36;34.63;101831.78;6278076;22;19999;-90
2022/03/19 08:22:49;;;;;;;9.47;7.33;;;;;;;4.67;34.38;101753.69;6278757;22;20406;-90
2022/03/19 08:25:14;;;;;;;9.53;7.30;;;;;;;5.29;34.18;101844.41;6278814;22;19995;-90
2022/03/19 08:27:40;;;;;;;9.23;7.40;;;;;;;5.46;34.54;101866.16;6279314;22;20003;-89
2022/03/19 08:30:07;;;;;;;9.53;7.43;;;;;;;4.81;34.71;101787.78;6277214;22;20003;-91
2022/03/19 08:32:32;;;;;;;10.03;7.50;;;;;;;5.13;34.45;101804.28;6278061;22;20082;-90
2022/03/19 08:34:58;;;;;;;10.87;7.57;;;;;;;5.13;34.37;101799.03;6278792;22;20030;-90
2022/03/19 08:37:23;;;;;;;12.37;7.63;;;;;;;4.58;34.47;101701.88;6278574;22;20010;-91
2022/03/19 08:42:33;;;;;;;9.93;7.33;;;;;;;3.25;33.84;101436.66;6307331;22;20072;-91
2022/03/19 08:44:59;;;;;;;8.20;7.20;;;;;;;5.17;33.78;101781.38;6279061;22;20019;-91
2022/03/19 08:47:25;;;;;;;8.33;6.90;;;;;;;5.19;33.81;101767.25;6279025;22;20511;-91
2022/03/19 08:49:50;;;;;;;11.77;7.73;;;;;;;4.56;34.14;101635.72;6278582;22;20003;-91
2022/03/19 08:52:16;;;;;;;11.00;8.50;;;;;;;5.92;33.88;101796.16;6279104;22;19995;-91
2022/03/19 08:54:41;;;;;;;10.97;8.40;;;;;;;6.33;33.28;101867.13;6278801;22;19999;-92
2022/03/19 08:57:07;;;;;;;9.60;7.17;;;;;;;6.13;33.25;101780.94;6278395;22;20352;-92
2022/03/19 08:59:32;;;;;;;10.90;8.67;;;;;;;5.91;32.69;101784.84;6305352;22;20002;-91
2022/03/19 09:01:59;;;;;;;10.27;7.67;;;;;;;5.22;32.93;101690.31;6305578;22;20056;-92
2022/03/19 09:04:24;;;;;;;9.13;7.40;;;;;;;6.62;32.72;101865.31;6305865;22;19995;-90
2022/03/19 09:06:50;;;;;;;10.43;8.17;;;;;;;5.79;32.60;101703.44;6305700;22;19995;-92
2022/03/19 09:09:17;;;;;;;8.77;7.10;;;;;;;6.67;32.46;101831.75;6278326;22;20000;-90
2022/03/19 09:11:43;;;;;;;8.33;6.43;;;;;;;5.96;32.01;101709.41;6278512;22;20003;-92
2022/03/19 09:14:08;;;;;;;9.37;8.17;;;;;;;6.20;32.12;101693.06;6277340;22;20453;-90
2022/03/19 09:16:35;;;;;;;12.17;9.53;;;;;;;6.64;31.64;101729.56;6277972;22;20444;-89
2022/03/19 09:19:02;;;;;;;13.50;9.87;;;;;;;7.32;31.47;101817.00;6277020;22;20015;-89
2022/03/19 09:21:29;;;;;;;8.70;7.20;;;;;;;7.30;30.90;101794.41;6280134;22;20019;-92
2022/03/19 09:23:56;;;;;;;9.13;7.27;;;;;;;7.70;30.54;101847.81;6280081;22;20003;-87
2022/03/19 09:26:22;;;;;;;8.93;6.50;;;;;;;7.69;30.53;101834.75;6307429;22;19999;-89
2022/03/19 09:28:47;;;;;;;8.00;6.18;;;;;;;7.16;30.64;101747.19;6280066;22;20506;-90
2022/03/19 09:31:15;;;;;;;9.07;6.38;;;;;;;7.83;30.42;101832.88;6280114;22;20056;-89
2022/03/19 09:33:42;;;;;;;9.77;6.50;;;;;;;6.67;30.55;101654.09;6279921;22;20368;-89
2022/03/19 09:36:07;;;;;;;9.93;7.25;;;;;;;7.83;30.70;101837.28;6280103;22;20333;-89
2022/03/19 09:38:33;;;;;;;9.23;7.35;;;;;;;5.95;30.07;101544.31;6307315;22;19999;-89
2022/03/19 09:40:59;;;;;;;10.85;6.88;;;;;;;7.45;30.13;101840.72;6280155;22;20048;-89
2022/03/19 09:43:27;;;;;;;9.40;6.72;;;;;;;7.37;29.99;101840.34;6279025;22;19999;-90
2022/03/19 09:45:53;;;;;;;7.93;6.43;;;;;;;6.93;30.64;101691.78;6279062;22;20000;-90
2022/03/19 09:48:19;;;;;;;11.35;7.90;;;;;;;7.23;30.22;101672.25;6279278;22;20000;-89
2022/03/19 09:50:49;;;;;;;8.52;6.40;;;;;;;8.22;30.23;101791.63;6278964;22;20003;-88
2022/03/19 09:53:19;;;;;;;10.57;7.72;;;;;;;8.62;28.39;101808.09;6277396;22;20454;-90
2022/03/19 09:55:45;;;;;;;8.05;6.57;;;;;;;9.28;28.87;101838.41;6279225;22;19999;-89
2022/03/19 09:58:12;;;;;;;7.13;5.85;;;;;;;9.24;27.91;101765.78;6279133;22;20082;-89
2022/03/19 10:00:37;;;;;;;10.35;6.90;;;;;;;9.05;27.85;101726.81;6278978;22;19995;-90
2022/03/19 10:03:08;;;;;;;9.77;7.22;;;;;;;9.94;27.09;101812.34;6279140;22;20007;-89
2022/03/19 10:08:36;;;;;;;8.45;5.95;;;;;;;9.99;27.45;101824.25;6306881;22;20010;-89
2022/03/19 10:11:09;;;;;;;8.73;6.20;;;;;;;9.52;27.72;101796.19;6278824;22;20058;-89
2022/03/19 10:13:46;;;;;;;8.82;6.90;;;;;;;9.71;27.65;101822.03;6278736;22;20451;-89
2022/03/19 10:16:18;;;;;;;6.45;5.80;;;;;;;9.32;26.99;101707.22;6278820;22;19999;-89
2022/03/19 10:18:44;;;;;;;6.43;5.68;;;;;;;10.19;27.14;101791.00;6278999;22;20330;-89
2022/03/19 10:21:15;;;;;;;6.18;5.28;;;;;;;10.24;26.33;101761.66;6306068;22;20003;-89
2022/03/19 10:23:41;;;;;;;8.35;6.03;;;;;;;10.17;26.06;101703.19;6278508;22;19999;-88
2022/03/19 10:26:07;;;;;;;7.55;5.90;;;;;;;10.55;25.83;101797.88;6306113;22;19999;-89
2022/03/19 10:28:36;;;;;;;7.00;5.15;;;;;;;8.91;25.78;101603.97;6279156;22;20411;-90
2022/03/19 10:31:03;;;;;;;8.43;5.53;;;;;;;9.91;26.25;101792.31;6278918;22;20011;-89
2022/03/19 10:33:30;;;;;;;7.05;5.63;;;;;;;9.69;26.47;101798.41;6278984;22;19995;-89
2022/03/19 10:36:10;;;;;;;7.43;5.95;;;;;;;9.13;26.04;101802.66;6306730;22;20447;-89
2022/03/19 10:38:44;;;;;;;7.68;5.95;;;;;;;8.14;26.98;101699.22;6278768;22;20006;-89
2022/03/19 10:41:12;;;;;;;7.38;5.72;;;;;;;8.60;27.72;101825.81;6306487;22;20447;-89
2022/03/19 10:43:38;;;;;;;7.25;6.50;;;;;;;8.23;28.13;101783.63;6305559;22;20099;-90
2022/03/19 10:46:04;;;;;;;9.30;7.20;;;;;;;7.85;28.40;101753.88;6307035;22;20369;-89
2022/03/19 10:48:31;;;;;;;10.18;7.28;;;;;;;8.22;28.46;101789.84;6283680;22;20010;-91
2022/03/19 10:51:02;;;;;;;6.82;5.75;;;;;;;8.30;28.34;101794.56;6280070;22;20010;-89
2022/03/19 10:53:27;;;;;;;7.50;6.78;;;;;;;8.41;28.20;101780.69;6307135;22;19995;-89
2022/03/19 10:55:53;;;;;;;8.38;6.20;;;;;;;8.57;28.01;101779.47;6306333;22;20356;-89
2022/03/19 10:58:19;;;;;;;7.30;5.97;;;;;;;8.39;27.99;101740.47;6279121;22;19999;-89
2022/03/19 11:00:48;;;;;;;8.15;5.95;;;;;;;8.15;27.38;101716.69;6305965;22;19996;-88
2022/03/19 11:03:20;;;;;;;9.50;6.82;;;;;;;8.07;27.29;101706.69;6278622;22;20418;-89
2022/03/19 11:05:46;;;;;;;7.97;6.22;;;;;;;8.31;27.13;101769.09;6278502;22;19999;-88
2022/03/19 11:08:13;;;;;;;9.85;7.38;;;;;;;8.28;27.53;101768.34;6305631;22;20002;-89
2022/03/19 11:10:40;;;;;;;9.00;6.43;;;;;;;7.69;27.33;101696.25;6278450;22;20503;-89
2022/03/19 11:13:11;;;;;;;11.38;6.97;;;;;;;7.47;27.47;101628.56;6305885;22;19999;-89
2022/03/19 11:15:39;;;;;;;10.20;7.38;;;;;;;7.97;27.49;101730.19;6278489;22;20002;-89
2022/03/19 11:18:09;;;;;;;8.55;6.30;;;;;;;8.25;27.42;101757.22;6305740;22;20002;-89
2022/03/19 11:20:35;;;;;;;12.25;8.40;;;;;;;7.65;27.48;101634.31;6305483;22;19995;-89
2022/03/19 11:23:04;;;;;;;12.85;8.18;;;;;;;8.28;27.16;101673.63;6305497;22;20015;-88
2022/03/19 11:25:35;;;;;;;14.52;8.07;;;;;;;9.21;26.52;101752.84;6278241;22;19995;-89
2022/03/19 11:28:10;;;;;;;10.07;7.20;;;;;;;8.69;27.00;101676.81;6305510;22;20029;-88
2022/03/19 11:30:57;;;;;;;9.63;7.57;;;;;;;8.22;26.50;101617.97;6305847;22;20006;-88
2022/03/19 11:33:24;;;;;;;6.93;5.63;;;;;;;8.40;27.31;101700.03;6305792;22;19991;-88
2022/03/19 11:35:56;;;;;;;8.18;7.15;;;;;;;8.54;27.63;101739.34;6278337;22;20066;-89
2022/03/19 11:38:22;;;;;;;;;;;;;;;8.58;27.83;101733.75;6278738;22;20452;-89
2022/03/19 11:40:56;;;;;;;6.95;5.53;;;;;;;7.70;27.07;101569.09;6305634;22;19903;-88
2022/03/19 11:43:24;;;;;;;8.30;6.40;;;;;;;8.54;27.27;101739.34;6278022;22;19998;-89
2022/03/19 11:46:04;;;;;;;8.25;6.70;;;;;;;8.46;26.78;101731.16;6305625;22;19999;-89
2022/03/19 11:51:13;;;;;;;7.37;5.43;;;;;;;8.68;27.22;101720.75;6305847;22;20047;-89
2022/03/19 11:53:59;;;;;;;8.20;6.03;;;;;;;8.76;27.14;101713.13;6305544;22;20221;-88
2022/03/19 11:56:35;;;;;;;6.38;5.40;;;;;;;8.74;27.00;101711.56;6277793;22;20022;-89
2022/03/19 11:59:04;;;;;;;6.70;5.38;;;;;;;8.53;27.53;101677.13;6277808;22;20069;-88
2022/03/19 12:01:54;;;;;;;9.82;7.25;;;;;;;8.29;26.99;101714.78;6305347;22;19995;-88
2022/03/19 12:04:21;;;;;;;8.85;6.25;;;;;;;8.02;27.27;101682.50;6277998;22;20003;-88
2022/03/19 12:06:59;;;;;;;6.97;6.25;;;;;;;7.49;26.74;101600.38;6305558;22;20359;-88
2022/03/19 12:09:40;;;;;;;7.30;5.68;;;;;;;8.22;27.72;101718.78;6276793;22;20011;-88
2022/03/19 12:12:11;;;;;;;8.93;5.53;;;;;;;8.42;27.74;101712.13;6305672;22;20006;-88
2022/03/19 12:14:37;;;;;;;7.87;5.53;;;;;;;8.64;27.25;101721.94;6278266;22;19995;-88
2022/03/19 12:17:27;;;;;;;8.05;5.70;;;;;;;8.29;27.45;101638.44;6278088;22;20010;-88
2022/03/19 12:20:02;;;;;;;7.15;6.13;;;;;;;8.81;27.59;101724.16;6277881;22;19995;-87
2022/03/19 12:22:33;;;;;;;7.30;5.57;;;;;;;8.88;27.51;101701.69;6278050;22;20010;-88
2022/03/19 12:25:11;;;;;;;8.20;6.45;;;;;;;8.99;27.04;101705.34;6305365;22;20048;-88
2022/03/19 12:27:37;;;;;;;5.97;5.38;;;;;;;8.35;26.79;101555.59;6277923;22;20053;-88
2022/03/19 12:30:05;;;;;;;7.50;6.40;;;;;;;8.90;27.06;101633.91;6277890;22;20513;-88
2022/03/19 12:32:49;;;;;;;7.70;6.03;;;;;;;8.40;26.96;101573.69;6278256;22;19995;-87
2022/03/19 12:35:15;;;;;;;9.90;6.53;;;;;;;8.74;27.39;101640.47;6305577;22;20003;-87
2022/03/19 12:37:56;;;;;;;8.18;6.88;;;;;;;8.78;25.81;101690.16;6305207;22;19995;-87
2022/03/19 12:40:24;;;;;;;9.15;7.82;;;;;;;8.66;27.39;101695.50;6277803;22;19999;-87
2022/03/19 12:42:55;;;;;;;7.10;5.82;;;;;;;8.49;26.75;101696.72;6305115;22;19995;-88
2022/03/19 12:45:42;;;;;;;9.23;6.40;;;;;;;7.83;26.68;101601.44;6277409;22;20030;-90
2022/03/19 12:48:12;;;;;;;6.47;5.55;;;;;;;8.06;26.92;101633.97;6304767;22;19999;-89
2022/03/19 12:50:38;;;;;;;6.22;5.47;;;;;;;8.66;26.72;101685.78;6277728;22;20072;-88
2022/03/19 12:53:05;;;;;;;9.02;7.05;;;;;;;8.90;26.91;101696.31;6306074;22;20014;-87
2022/03/19 12:55:31;;;;;;;8.75;6.40;;;;;;;8.39;27.02;101600.97;6307265;22;20005;-87
2022/03/19 12:57:58;;;;;;;6.40;5.07;;;;;;;8.94;26.50;101710.13;6307338;22;20022;-90
2022/03/19 13:00:24;;;;;;;6.35;5.05;;;;;;;8.51;26.33;101647.44;6279838;22;20002;-89
2022/03/19 13:02:57;;;;;;;5.85;4.85;;;;;;;8.45;26.50;101661.06;6279913;22;19999;-89
2022/03/19 13:05:23;;;;;;;6.20;5.60;;;;;;;8.62;27.15;101673.81;6279829;22;20121;-90
2022/03/19 13:08:07;;;;;;;7.82;6.13;;;;;;;8.77;25.76;101677.09;6279521;22;20330;-87
2022/03/19 13:10:46;;;;;;;8.48;7.05;;;;;;;8.91;26.72;101664.56;6280056;22;20007;-87
2022/03/19 13:13:13;;;;;;;7.68;5.55;;;;;;;8.79;26.55;101676.03;6307328;22;19995;-87
2022/03/19 13:15:49;;;;;;;6.63;5.90;;;;;;;8.97;26.39;101692.28;6279658;22;20007;-88
2022/03/19 13:18:29;;;;;;;7.03;5.07;;;;;;;8.23;25.95;101569.63;6307113;22;20060;-87
2022/03/19 13:20:58;;;;;;;5.80;5.18;;;;;;;8.98;25.92;101683.41;6279745;22;19999;-87
2022/03/19 13:23:24;;;;;;;6.95;5.30;;;;;;;8.75;26.44;101645.59;6279965;22;20006;-88
2022/03/19 13:25:49;;;;;;;6.82;5.18;;;;;;;8.64;26.67;101621.88;6306968;22;19999;-88
2022/03/19 13:28:15;;;;;;;9.25;6.25;;;;;;;8.33;26.43;101588.22;6279461;22;20064;-88
2022/03/19 13:30:44;;;;;;;7.82;5.30;;;;;;;7.87;26.79;101557.34;6306741;22;19999;-88
2022/03/19 13:33:14;;;;;;;9.48;7.88;;;;;;;7.80;27.00;101566.66;6279259;22;19999;-87
2022/03/19 13:35:42;;;;;;;8.90;6.78;;;;;;;6.67;27.07;101381.09;6279146;22;19995;-88
2022/03/19 13:38:10;;;;;;;8.15;7.20;;;;;;;8.57;27.15;101686.47;6279311;22;20419;-89
2022/03/19 13:40:36;;;;;;;7.25;6.18;;;;;;;8.02;27.39;101602.75;6306397;22;19995;-88
2022/03/19 13:43:01;;;;;;;7.18;6.47;;;;;;;7.77;27.47;101596.63;6306991;22;19995;-88
2022/03/19 13:45:27;;;;;;;7.07;5.28;;;;;;;7.46;27.68;101603.22;6279496;22;20075;-89
2022/03/19 13:48:02;;;;;;;9.05;6.22;;;;;;;7.53;27.37;101604.47;6307230;22;20356;-89
2022/03/19 13:50:27;;;;;;;7.93;5.65;;;;;;;7.50;27.66;101623.09;6279763;22;20074;-89
2022/03/19 13:52:57;;;;;;;7.40;6.40;;;;;;;7.43;28.02;101576.28;6306845;22;20454;-89
2022/03/19 13:55:23;;;;;;;10.40;8.57;;;;;;;8.31;27.85;101693.59;6307053;22;20066;-88
2022/03/19 13:57:49;;;;;;;7.72;6.93;;;;;;;8.37;27.55;101689.72;6279256;22;20042;-88
2022/03/19 14:00:26;;;;;;;7.35;6.65;;;;;;;8.33;27.52;101689.09;6279311;22;20026;-87
2022/03/19 14:03:00;;;;;;;9.00;7.18;;;;;;;8.10;28.29;101687.22;6306906;22;20428;-88
2022/03/19 14:05:28;;;;;;;10.75;7.68;;;;;;;7.63;28.48;101623.91;6306278;22;19995;-88
2022/03/19 14:07:58;;;;;;;13.60;10.63;;;;;;;7.73;28.30;101658.28;6279427;22;20032;-88
2022/03/19 14:10:42;;;;;;;13.15;10.07;;;;;;;7.82;28.23;101662.88;6279406;22;20063;-88
2022/03/19 14:13:09;;;;;;;8.60;7.18;;;;;;;8.12;28.02;101685.31;6279252;22;20052;-88
2022/03/19 14:15:36;;;;;;;9.93;8.55;;;;;;;7.37;28.22;101585.44;6279382;22;19995;-88
2022/03/19 14:18:02;;;;;;;6.97;5.97;;;;;;;7.93;28.25;101657.69;6279454;22;20005;-88
2022/03/19 14:20:28;;;;;;;7.93;6.78;;;;;;;7.89;28.38;101685.16;6306728;22;19991;-88
2022/03/19 14:22:54;;;;;;;9.10;6.85;;;;;;;7.14;28.47;101584.41;6306480;22;20429;-88
2022/03/19 14:25:20;;;;;;;7.18;6.32;;;;;;;7.69;28.55;101700.66;6279320;22;20000;-88
2022/03/19 14:27:47;;;;;;;11.10;7.50;;;;;;;7.24;29.38;101679.19;6279118;22;20010;-88
2022/03/19 14:30:14;;;;;;;7.90;6.75;;;;;;;7.36;29.76;101711.69;6278971;22;19999;-89
2022/03/19 14:32:41;;;;;;;7.03;6.20;;;;;;;6.85;30.22;101670.44;6279112;22;20003;-89
2022/03/19 14:35:37;;;;;;;7.38;6.28;;;;;;;6.78;30.06;101648.16;6279233;22;20003;-89
2022/03/19 14:38:02;;;;;;;8.25;5.97;;;;;;;6.52;30.10;101613.09;6279139;22;20028;-88
2022/03/19 14:40:28;;;;;;;10.88;8.50;;;;;;;7.18;30.19;101654.19;6279169;22;19999;-88
2022/03/19 14:42:53;;;;;;;15.00;9.65;;;;;;;6.77;29.96;101580.00;6279624;22;20027;-88
2022/03/19 14:45:21;;;;;;;10.02;8.10;;;;;;;6.68;29.92;101557.81;6278750;22;20102;-88
2022/03/19 14:47:47;;;;;;;12.70;8.73;;;;;;;7.37;29.89;101666.91;6278740;22;20003;-88
2022/03/19 14:50:12;;;;;;;11.95;9.75;;;;;;;7.52;29.75;101679.00;6306148;22;20411;-88
2022/03/19 14:52:38;;;;;;;14.75;11.88;;;;;;;7.06;30.09;101634.00;6278841;22;20010;-89
2022/03/19 14:55:03;;;;;;;13.60;9.95;;;;;;;5.87;30.52;101471.34;6278765;22;20356;-89
2022/03/19 14:57:29;;;;;;;12.02;8.98;;;;;;;7.06;30.35;101691.78;6306130;22;20353;-88
2022/03/19 14:59:54;;;;;;;11.23;8.80;;;;;;;6.61;30.59;101609.88;6278819;22;20002;-89
2022/03/19 15:02:20;;;;;;;10.35;7.22;;;;;;;6.98;30.73;101681.81;6306307;22;20003;-89
2022/03/19 15:04:45;;;;;;;8.13;7.25;;;;;;;6.34;30.64;101570.56;6278670;22;20056;-88
2022/03/19 15:07:11;;;;;;;8.68;7.00;;;;;;;6.69;30.59;101622.50;6278764;22;20003;-89
2022/03/19 15:09:36;;;;;;;6.90;6.10;;;;;;;7.11;30.69;101726.47;6278705;22;20353;-88
2022/03/19 15:12:02;;;;;;;11.07;7.00;;;;;;;7.01;30.71;101707.84;6278860;22;20070;-88
2022/03/19 15:14:28;;;;;;;9.60;7.97;;;;;;;6.86;30.38;101668.66;6278645;22;19999;-88
2022/03/19 15:16:54;;;;;;;8.35;6.80;;;;;;;6.99;30.48;101682.63;6305348;22;20008;-88
2022/03/19 15:19:19;;;;;;;14.70;10.53;;;;;;;6.97;31.03;101713.41;6278620;22;19999;-88
2022/03/19 15:21:45;;;;;;;12.25;8.77;;;;;;;6.61;31.69;101679.91;6278692;22;20006;-89
2022/03/19 15:24:10;;;;;;;11.23;7.72;;;;;;;6.32;31.77;101640.66;6278977;22;20455;-88
2022/03/19 15:26:36;;;;;;;8.33;6.33;;;;;;;5.58;31.17;101499.44;6306068;22;20133;-89
2022/03/19 15:29:01;;;;;;;10.63;7.67;;;;;;;6.42;31.37;101634.81;6278456;22;20002;-88
2022/03/19 15:31:27;;;;;;;11.03;8.13;;;;;;;6.53;31.37;101669.91;6278697;22;19995;-91
2022/03/19 15:33:52;;;;;;;9.23;7.00;;;;;;;6.20;31.39;101615.22;6278634;22;19999;-90
2022/03/19 15:36:20;;;;;;;15.87;12.20;;;;;;;6.25;31.48;101623.63;6278603;22;20082;-90
2022/03/19 15:38:46;;;;;;;18.10;13.37;;;;;;;6.86;31.55;101726.41;6278693;22;20406;-90
2022/03/19 15:41:19;;;;;;;14.67;10.30;;;;;;;6.64;31.14;101740.91;6278452;22;20002;-90
2022/03/19 15:43:46;;;;;;;14.10;10.90;;;;;;;6.50;31.22;101722.59;6278293;22;20107;-91
2022/03/19 15:46:13;;;;;;;12.03;10.17;;;;;;;6.66;31.83;101722.44;6305943;22;20022;-90
2022/03/19 15:48:38;;;;;;;12.10;9.67;;;;;;;6.42;31.99;101705.66;6278344;22;20075;-91
2022/03/19 15:51:03;;;;;;;10.53;8.03;;;;;;;6.38;31.58;101708.47;6278991;22;20037;-91
2022/03/19 15:53:29;;;;;;;11.80;8.90;;;;;;;6.13;31.45;101665.53;6304079;22;19995;-91
2022/03/19 15:55:55;;;;;;;12.57;8.97;;;;;;;5.74;31.20;101602.34;6301454;22;20011;-89
2022/03/19 15:58:20;;;;;;;16.40;12.57;;;;;;;6.63;31.10;101743.63;6278550;22;19999;-89
2022/03/19 16:00:46;;;;;;;17.67;12.50;;;;;;;6.17;31.23;101698.50;6305786;22;20060;-89
2022/03/19 16:03:11;;;;;;;17.27;12.83;;;;;;;6.31;31.35;101709.81;6305701;22;19999;-89
2022/03/19 16:05:37;;;;;;;15.30;11.13;;;;;;;5.78;31.12;101641.47;6278219;22;20348;-89
2022/03/19 16:08:02;;;;;;;15.30;10.80;;;;;;;5.45;31.39;101598.09;6278340;22;20025;-87
2022/03/19 16:10:28;;;;;;;15.67;11.10;;;;;;;5.69;31.23;101638.50;6306019;22;20006;-90
2022/03/19 16:12:53;;;;;;;14.40;10.60;;;;;;;5.98;31.49;101735.53;6278477;22;19999;-90
2022/03/19 16:15:19;;;;;;;16.27;13.70;;;;;;;6.07;31.54;101729.72;6278369;22;20433;-88
2022/03/19 16:17:44;;;;;;;11.10;7.60;;;;;;;5.53;31.37;101669.19;6278238;22;20030;-88
2022/03/19 16:20:12;;;;;;;10.47;8.93;;;;;;;5.95;31.68;101712.13;6278100;22;19998;-89
2022/03/19 16:22:38;;;;;;;11.43;8.93;;;;;;;5.36;31.55;101630.94;6278670;22;20026;-91
2022/03/19 16:25:04;;;;;;;16.30;11.77;;;;;;;6.17;31.80;101777.19;6278638;22;19999;-89
2022/03/19 16:27:30;;;;;;;19.60;13.40;;;;;;;5.64;31.38;101703.47;6278202;22;19995;-89
2022/03/19 16:29:56;;;;;;;20.30;14.83;;;;;;;5.53;31.37;101690.16;6278032;22;20092;-89
2022/03/19 16:32:21;;;;;;;15.33;13.03;;;;;;;5.74;31.70;101736.03;6278557;22;20074;-89
2022/03/19 16:34:49;;;;;;;13.17;11.03;;;;;;;5.65;31.58;101722.63;6278649;22;20021;-89
2022/03/19 16:37:17;;;;;;;16.40;12.10;;;;;;;5.30;31.67;101690.72;6278570;22;20403;-89
2022/03/19 16:39:43;;;;;;;15.80;10.47;;;;;;;3.66;32.10;101429.97;6278586;22;20074;-88
2022/03/19 16:42:08;;;;;;;12.37;10.50;;;;;;;5.68;32.11;101749.50;6278393;22;20023;-88
2022/03/19 16:44:34;;;;;;;14.40;10.47;;;;;;;5.02;31.90;101667.91;6278451;22;20026;-88
2022/03/19 16:46:59;;;;;;;12.43;9.60;;;;;;;3.99;32.14;101494.31;6278608;22;19999;-88